createdAt,value
2022-10-07T00:00:40.846Z,6.5
2022-10-07T00:02:41.104Z,5.6
2022-10-07T00:04:41.239Z,5.6
2022-10-07T00:06:41.435Z,5.4
2022-10-07T00:08:43.902Z,5.3
2022-10-07T00:10:42.580Z,5.8
2022-10-07T00:12:41.840Z,5.6
2022-10-07T00:14:42.256Z,5.6
2022-10-07T00:16:42.314Z,5.4
2022-10-07T00:18:43.125Z,5.4
2022-10-07T00:20:42.614Z,5.2
2022-10-07T00:22:42.720Z,5.8
2022-10-07T00:24:43.256Z,5.4
2022-10-07T00:26:43.102Z,5.3
2022-10-07T00:28:44.038Z,5.6
2022-10-07T00:30:43.968Z,5.5
2022-10-07T00:32:43.857Z,5.4
2022-10-07T00:34:47.315Z,5.2
2022-10-07T00:36:43.997Z,5.2
2022-10-07T00:38:44.147Z,5.4
2022-10-07T00:40:44.149Z,4.5
2022-10-07T00:42:44.434Z,4.8
2022-10-07T00:44:45.643Z,4.8
2022-10-07T00:46:44.981Z,4.8
2022-10-07T00:48:45.514Z,5.5
2022-10-07T00:50:48.677Z,4.9
2022-10-07T00:52:50.557Z,5.5
2022-10-07T00:54:46.972Z,5.2
2022-10-07T00:56:47.809Z,5
2022-10-07T00:58:48.258Z,4.8
2022-10-07T01:00:46.415Z,4.8
2022-10-07T01:02:46.166Z,4.9
2022-10-07T01:04:47.351Z,4.6
2022-10-07T01:06:46.683Z,5.3
2022-10-07T01:08:48.148Z,4.5
2022-10-07T01:10:59.591Z,4.5
2022-10-07T01:13:00.951Z,5.1
2022-10-07T01:14:55.877Z,4.4
2022-10-07T01:16:57.842Z,4.5
2022-10-07T01:18:53.585Z,4.7
2022-10-07T01:20:56.308Z,4.6
2022-10-07T01:23:00.522Z,4.6
2022-10-07T01:25:00.912Z,4.9
2022-10-07T01:26:54.043Z,4.7
2022-10-07T01:28:53.458Z,5.2
2022-10-07T01:30:54.597Z,4.9
2022-10-07T01:32:54.488Z,4.9
2022-10-07T01:34:50.287Z,5.5
2022-10-07T01:36:51.062Z,4.6
2022-10-07T01:38:53.203Z,5.2
2022-10-07T01:40:55.361Z,4.7
2022-10-07T01:42:50.004Z,4.7
2022-10-07T01:44:53.344Z,4.7
2022-10-07T01:46:49.911Z,4.6
2022-10-07T01:48:51.087Z,4.6
2022-10-07T01:50:51.293Z,5.1
2022-10-07T01:53:05.454Z,5
2022-10-07T01:55:09.596Z,4.7
2022-10-07T01:57:08.006Z,4.9
2022-10-07T01:59:09.599Z,4.6
2022-10-07T02:00:59.102Z,4.4
2022-10-07T02:03:02.203Z,4.4
2022-10-07T02:04:56.179Z,4.4
2022-10-07T02:06:59.900Z,4.9
2022-10-07T02:08:54.755Z,4.5
2022-10-07T02:11:07.693Z,4.7
2022-10-07T02:13:01.895Z,4.6
2022-10-07T02:14:57.196Z,4.9
2022-10-07T02:16:58.320Z,4.7
2022-10-07T02:18:53.657Z,4.7
2022-10-07T02:20:54.869Z,4.3
2022-10-07T02:22:56.088Z,4.7
2022-10-07T02:24:55.613Z,4.1
2022-10-07T02:26:56.303Z,4.5
2022-10-07T02:28:57.031Z,4.2
2022-10-07T02:30:57.435Z,4.2
2022-10-07T02:32:56.859Z,4.5
2022-10-07T02:34:59.887Z,4.6
2022-10-07T02:37:00.032Z,4.6
2022-10-07T02:38:54.406Z,3.9
2022-10-07T02:41:04.362Z,3.6
2022-10-07T02:42:59.223Z,3.4
2022-10-07T02:44:58.805Z,3.5
2022-10-07T02:47:01.500Z,3.8
2022-10-07T02:48:57.477Z,3.7
2022-10-07T02:51:00.105Z,3.9
2022-10-07T02:52:55.827Z,3.7
2022-10-07T02:55:00.832Z,3.7
2022-10-07T02:56:57.478Z,3.4
2022-10-07T02:58:57.397Z,3.3
2022-10-07T03:00:59.061Z,3.5
2022-10-07T03:03:03.309Z,3.5
2022-10-07T03:04:57.173Z,3.6
2022-10-07T03:06:57.719Z,3.8
2022-10-07T03:08:57.994Z,3.4
2022-10-07T03:10:57.132Z,3.5
2022-10-07T03:12:56.812Z,3.4
2022-10-07T03:14:57.124Z,3.2
2022-10-07T03:16:57.766Z,3.3
2022-10-07T03:19:05.421Z,3.7
2022-10-07T03:20:58.698Z,3.5
2022-10-07T03:22:57.673Z,3.9
2022-10-07T03:24:57.974Z,3.7
2022-10-07T03:26:58.007Z,3.6
2022-10-07T03:28:58.502Z,3.6
2022-10-07T03:31:04.351Z,3.8
2022-10-07T03:32:58.438Z,4.1
2022-10-07T03:34:59.012Z,4.2
2022-10-07T03:36:59.081Z,3.5
2022-10-07T03:38:59.018Z,4
2022-10-07T03:40:59.289Z,4.3
2022-10-07T03:42:59.122Z,5.6
2022-10-07T03:45:01.780Z,3.9
2022-10-07T03:46:59.867Z,4.1
2022-10-07T03:48:59.792Z,4.1
2022-10-07T03:51:01.442Z,3.6
2022-10-07T03:53:00.861Z,4.1
2022-10-07T03:55:00.050Z,4.1
2022-10-07T03:57:00.676Z,3.8
2022-10-07T03:59:00.670Z,3.7
2022-10-07T04:01:05.343Z,3.8
2022-10-07T04:03:00.830Z,3.8
2022-10-07T04:05:01.717Z,4
2022-10-07T04:07:01.583Z,3.7
2022-10-07T04:09:01.150Z,3.8
2022-10-07T04:11:02.701Z,4.7
2022-10-07T04:13:01.477Z,4.1
2022-10-07T04:15:03.458Z,4.4
2022-10-07T04:17:01.751Z,3.7
2022-10-07T04:19:02.690Z,3.7
2022-10-07T04:21:02.642Z,4.4
2022-10-07T04:23:02.214Z,4.8
2022-10-07T04:25:03.238Z,4.2
2022-10-07T04:27:02.861Z,4.2
2022-10-07T04:29:02.803Z,3.9
2022-10-07T04:31:07.105Z,4
2022-10-07T04:33:03.476Z,4.2
2022-10-07T04:35:03.379Z,4.6
2022-10-07T04:37:03.881Z,4.5
2022-10-07T04:39:07.200Z,3.8
2022-10-07T04:41:04.996Z,3.5
2022-10-07T04:43:03.574Z,3.8
2022-10-07T04:45:06.146Z,4.5
2022-10-07T04:47:04.063Z,4.6
2022-10-07T04:49:05.168Z,4
2022-10-07T04:51:06.203Z,3.9
2022-10-07T04:53:05.413Z,3.6
2022-10-07T04:55:04.930Z,3.2
2022-10-07T04:57:05.292Z,3.2
2022-10-07T04:59:04.954Z,4.1
2022-10-07T05:01:09.077Z,3
2022-10-07T05:03:04.845Z,3
2022-10-07T05:05:06.341Z,3.1
2022-10-07T05:07:05.845Z,2.9
2022-10-07T05:09:07.939Z,2.9
2022-10-07T05:11:11.382Z,2.8
2022-10-07T05:13:06.936Z,2.5
2022-10-07T05:15:06.671Z,2.4
2022-10-07T05:17:07.206Z,2.4
2022-10-07T05:19:06.360Z,2.5
2022-10-07T05:21:08.169Z,2.3
2022-10-07T05:23:06.406Z,2.5
2022-10-07T05:25:08.100Z,2.6
2022-10-07T05:27:06.890Z,2.8
2022-10-07T05:29:11.669Z,3.6
2022-10-07T05:31:09.146Z,3.7
2022-10-07T05:33:08.006Z,3.8
2022-10-07T05:35:08.407Z,2.8
2022-10-07T05:37:07.682Z,2.5
2022-10-07T05:39:15.603Z,2.7
2022-10-07T05:41:11.614Z,2.4
2022-10-07T05:43:09.579Z,2.3
2022-10-07T05:45:09.157Z,1.9
2022-10-07T05:47:08.415Z,2.4
2022-10-07T05:49:09.618Z,2.8
2022-10-07T05:51:10.085Z,2.4
2022-10-07T05:53:09.139Z,2.3
2022-10-07T05:55:09.607Z,2.2
2022-10-07T05:57:09.313Z,2
2022-10-07T05:59:09.900Z,2
2022-10-07T06:01:14.387Z,2.3
2022-10-07T06:03:10.041Z,2.5
2022-10-07T06:05:10.233Z,2.1
2022-10-07T06:07:10.490Z,1.7
2022-10-07T06:09:11.366Z,2
2022-10-07T06:11:13.171Z,1.9
2022-10-07T06:13:12.566Z,2.6
2022-10-07T06:15:12.408Z,3
2022-10-07T06:17:11.925Z,2.7
2022-10-07T06:19:11.212Z,2.5
2022-10-07T06:21:11.494Z,2.2
2022-10-07T06:23:13.963Z,1.9
2022-10-07T06:25:11.963Z,2.1
2022-10-07T06:27:12.571Z,2
2022-10-07T06:29:12.140Z,1.6
2022-10-07T06:31:15.907Z,1.9
2022-10-07T06:33:12.574Z,2.1
2022-10-07T06:35:12.869Z,2
2022-10-07T06:37:13.352Z,2.2
2022-10-07T06:39:15.913Z,2.2
2022-10-07T06:41:14.179Z,2.9
2022-10-07T06:43:18.372Z,2
2022-10-07T06:45:14.245Z,2.1
2022-10-07T06:47:16.076Z,2
2022-10-07T06:49:14.259Z,1.9
2022-10-07T06:51:16.485Z,2.1
2022-10-07T06:53:14.562Z,2.6
2022-10-07T06:55:15.050Z,5.3
2022-10-07T06:57:40.838Z,2.7
2022-10-07T06:59:21.876Z,1.7
2022-10-07T07:01:16.107Z,1.8
2022-10-07T07:03:16.311Z,1.8
2022-10-07T07:05:16.921Z,1.7
2022-10-07T07:07:16.838Z,1.8
2022-10-07T07:09:17.349Z,1.7
2022-10-07T07:11:18.429Z,2
2022-10-07T07:13:16.790Z,1.8
2022-10-07T07:15:17.045Z,2.3
2022-10-07T07:17:17.533Z,1.7
2022-10-07T07:19:17.441Z,1.8
2022-10-07T07:21:17.485Z,1.9
2022-10-07T07:23:18.509Z,1.8
2022-10-07T07:25:18.598Z,1.7
2022-10-07T07:27:18.384Z,1.7
2022-10-07T07:29:22.082Z,1.8
2022-10-07T07:31:18.612Z,1.7
2022-10-07T07:33:18.926Z,1.9
2022-10-07T07:35:19.076Z,1.8
2022-10-07T07:37:21.428Z,1.7
2022-10-07T07:39:24.201Z,2.2
2022-10-07T07:41:21.885Z,1.8
2022-10-07T07:43:19.885Z,1.6
2022-10-07T07:45:20.027Z,1.8
2022-10-07T07:47:20.659Z,1.7
2022-10-07T07:49:21.716Z,1.6
2022-10-07T07:51:21.412Z,1.7
2022-10-07T07:53:21.147Z,1.8
2022-10-07T07:55:22.446Z,1.8
2022-10-07T07:57:21.420Z,1.7
2022-10-07T07:59:22.208Z,1.9
2022-10-07T08:01:21.706Z,2.1
2022-10-07T08:03:22.059Z,1.8
2022-10-07T08:05:24.197Z,1.5
2022-10-07T08:07:23.017Z,2.2
2022-10-07T08:09:23.158Z,3.2
2022-10-07T08:11:23.729Z,1.9
2022-10-07T08:13:23.340Z,2.7
2022-10-07T08:15:23.335Z,3.2
2022-10-07T08:17:23.426Z,2.8
2022-10-07T08:19:24.069Z,2.2
2022-10-07T08:21:26.417Z,1.8
2022-10-07T08:23:24.120Z,1.9
2022-10-07T08:25:24.713Z,3
2022-10-07T08:27:24.605Z,2
2022-10-07T08:29:25.019Z,1.4
2022-10-07T08:31:25.520Z,1.7
2022-10-07T08:33:25.139Z,1.8
2022-10-07T08:35:25.433Z,1.9
2022-10-07T08:37:25.774Z,1.7
2022-10-07T08:39:25.945Z,1.8
2022-10-07T08:41:39.339Z,1.7
2022-10-07T08:43:26.304Z,2.2
2022-10-07T08:45:30.169Z,2
2022-10-07T08:47:31.539Z,1.7
2022-10-07T08:49:35.000Z,2.2
2022-10-07T08:51:32.673Z,1.7
2022-10-07T08:53:30.946Z,1.8
2022-10-07T08:55:35.685Z,1.8
2022-10-07T08:57:48.943Z,2
2022-10-07T08:59:31.813Z,1.8
2022-10-07T09:01:37.089Z,1.9
2022-10-07T09:03:41.675Z,1.9
2022-10-07T09:05:33.189Z,2
2022-10-07T09:07:33.796Z,2.3
2022-10-07T09:09:34.817Z,1.8
2022-10-07T09:11:31.921Z,1.8
2022-10-07T09:13:38.506Z,2
2022-10-07T09:15:38.695Z,1.8
2022-10-07T09:17:35.857Z,1.6
2022-10-07T09:19:34.533Z,1.5
2022-10-07T09:21:37.122Z,1.4
2022-10-07T09:23:32.984Z,1.6
2022-10-07T09:25:30.889Z,1.6
2022-10-07T09:27:30.880Z,1.8
2022-10-07T09:29:31.268Z,1.5
2022-10-07T09:31:31.419Z,1.7
2022-10-07T09:33:40.425Z,2.1
2022-10-07T09:35:32.193Z,1.9
2022-10-07T09:37:32.004Z,2.2
2022-10-07T09:39:32.196Z,1.7
2022-10-07T09:41:34.376Z,1.6
2022-10-07T09:43:34.434Z,2.2
2022-10-07T09:45:33.185Z,2
2022-10-07T09:47:37.530Z,1.7
2022-10-07T09:49:40.548Z,2
2022-10-07T09:51:33.802Z,2
2022-10-07T09:53:33.833Z,1.9
2022-10-07T09:55:39.903Z,2.4
2022-10-07T09:57:35.826Z,2.1
2022-10-07T09:59:35.917Z,2.2
2022-10-07T10:01:48.979Z,2.4
2022-10-07T10:03:37.348Z,1.6
2022-10-07T10:05:36.998Z,1.8
2022-10-07T10:07:36.426Z,2.1
2022-10-07T10:09:35.604Z,1.9
2022-10-07T10:11:35.659Z,2.1
2022-10-07T10:13:38.190Z,2
2022-10-07T10:16:20.920Z,1.9
2022-10-07T10:17:39.645Z,2
2022-10-07T10:19:37.489Z,2.3
2022-10-07T10:21:40.116Z,2
2022-10-07T10:23:38.342Z,2
2022-10-07T10:25:46.440Z,2
2022-10-07T10:27:47.438Z,1.8
2022-10-07T10:29:47.212Z,2.1
2022-10-07T10:32:04.465Z,1.7
2022-10-07T10:33:45.375Z,2
2022-10-07T10:35:48.271Z,1.9
2022-10-07T10:37:58.700Z,1.9
2022-10-07T10:39:52.123Z,2.1
2022-10-07T10:41:45.934Z,2
2022-10-07T10:43:55.802Z,2
2022-10-07T10:46:33.075Z,2
2022-10-07T10:48:05.594Z,2.3
2022-10-07T10:49:51.401Z,1.8
2022-10-07T10:51:52.924Z,2
2022-10-07T10:53:50.841Z,1.8
2022-10-07T10:56:03.623Z,2
2022-10-07T10:57:52.095Z,1.9
2022-10-07T10:59:55.313Z,1.7
2022-10-07T11:01:44.038Z,2.3
2022-10-07T11:03:58.319Z,2.5
2022-10-07T11:05:43.693Z,2.1
2022-10-07T11:07:46.786Z,2.2
2022-10-07T11:09:49.856Z,2.1
2022-10-07T11:11:44.661Z,2
2022-10-07T11:13:47.609Z,2.1
2022-10-07T11:15:47.297Z,2
2022-10-07T11:17:47.351Z,2.2
2022-10-07T11:19:52.245Z,2
2022-10-07T11:21:47.615Z,1.8
2022-10-07T11:23:52.157Z,1.6
2022-10-07T11:25:52.009Z,1.7
2022-10-07T11:27:50.775Z,1.9
2022-10-07T11:29:50.695Z,1.7
2022-10-07T11:31:53.869Z,1.9
2022-10-07T11:33:50.366Z,1.7
2022-10-07T11:35:51.001Z,2.3
2022-10-07T11:37:56.865Z,2
2022-10-07T11:39:47.748Z,1.8
2022-10-07T11:41:53.167Z,1.9
2022-10-07T11:43:51.289Z,2
2022-10-07T11:45:51.058Z,1.8
2022-10-07T11:47:53.415Z,2
2022-10-07T11:49:56.489Z,2
2022-10-07T11:51:55.633Z,1.8
2022-10-07T11:53:49.110Z,2.1
2022-10-07T11:55:56.467Z,1.8
2022-10-07T11:57:53.501Z,1.9
2022-10-07T11:59:55.295Z,2
2022-10-07T12:01:51.865Z,2.2
2022-10-07T12:03:51.224Z,2
2022-10-07T12:05:57.563Z,2.6
2022-10-07T12:08:01.296Z,2.4
2022-10-07T12:09:55.249Z,1.8
2022-10-07T12:11:57.422Z,1.9
2022-10-07T12:13:52.759Z,1.7
2022-10-07T12:15:53.799Z,1.8
2022-10-07T12:17:53.691Z,2
2022-10-07T12:20:20.751Z,1.8
2022-10-07T12:22:20.918Z,1.9
2022-10-07T12:24:14.095Z,2
2022-10-07T12:25:54.065Z,1.8
2022-10-07T12:27:52.419Z,1.9
2022-10-07T12:29:55.029Z,2
2022-10-07T12:31:52.906Z,2.1
2022-10-07T12:33:56.828Z,1.9
2022-10-07T12:35:54.738Z,1.9
2022-10-07T12:38:02.128Z,2.4
2022-10-07T12:39:53.794Z,2.2
2022-10-07T12:41:54.572Z,1.9
2022-10-07T12:44:00.913Z,2.2
2022-10-07T12:45:55.022Z,1.9
2022-10-07T12:47:58.553Z,2.2
2022-10-07T12:49:59.826Z,2.2
2022-10-07T12:51:58.682Z,2.4
2022-10-07T12:53:58.411Z,1.8
2022-10-07T12:55:56.429Z,1.9
2022-10-07T12:57:57.101Z,2.1
2022-10-07T13:00:03.894Z,2.1
2022-10-07T13:02:25.231Z,1.6
2022-10-07T13:04:17.023Z,1.8
2022-10-07T13:06:19.674Z,1.9
2022-10-07T13:08:21.679Z,2.2
2022-10-07T13:10:19.931Z,1.8
2022-10-07T13:12:10.582Z,2
2022-10-07T13:14:07.359Z,1.9
2022-10-07T13:16:04.237Z,2.2
2022-10-07T13:18:10.495Z,2
2022-10-07T13:20:11.691Z,1.7
2022-10-07T13:22:06.804Z,1.7
2022-10-07T13:23:59.045Z,2
2022-10-07T13:26:01.033Z,2.1
2022-10-07T13:28:00.018Z,2.4
2022-10-07T13:30:01.633Z,2.2
2022-10-07T13:32:06.329Z,2
2022-10-07T13:34:14.544Z,2.2
2022-10-07T13:36:14.261Z,2.6
2022-10-07T13:38:00.707Z,3.3
2022-10-07T13:40:20.303Z,3
2022-10-07T13:42:01.099Z,2.1
2022-10-07T13:44:04.472Z,2.1
2022-10-07T13:46:03.101Z,2.2
2022-10-07T13:48:01.911Z,2.1
2022-10-07T13:50:02.673Z,2.2
2022-10-07T13:52:05.546Z,2.1
2022-10-07T13:54:05.294Z,1.9
2022-10-07T13:56:07.012Z,2.1
2022-10-07T13:58:04.780Z,2.2
2022-10-07T14:00:12.821Z,2.1
2022-10-07T14:02:03.964Z,2.1
2022-10-07T14:04:16.630Z,1.9
2022-10-07T14:06:03.798Z,2.1
2022-10-07T14:08:12.880Z,2.4
2022-10-07T14:10:05.679Z,2.7
2022-10-07T14:12:08.267Z,2.6
2022-10-07T14:14:07.840Z,2.3
2022-10-07T14:16:05.223Z,2.2
2022-10-07T14:18:08.217Z,2.4
2022-10-07T14:20:16.912Z,2.4
2022-10-07T14:22:18.069Z,2.7
2022-10-07T14:24:08.122Z,2.2
2022-10-07T14:26:07.633Z,2.3
2022-10-07T14:28:15.858Z,2.3
2022-10-07T14:30:26.144Z,1.9
2022-10-07T14:32:12.872Z,2.2
2022-10-07T14:34:16.721Z,2.7
2022-10-07T14:36:11.014Z,2.3
2022-10-07T14:38:25.343Z,2.3
2022-10-07T14:40:17.648Z,2.1
2022-10-07T14:42:12.634Z,2.9
2022-10-07T14:44:08.106Z,2.8
2022-10-07T14:46:10.411Z,2.6
2022-10-07T14:48:11.728Z,2.8
2022-10-07T14:50:09.889Z,2.4
2022-10-07T14:52:12.957Z,2.5
2022-10-07T14:54:11.547Z,2.4
2022-10-07T14:56:13.640Z,2.6
2022-10-07T14:58:10.393Z,2.5
2022-10-07T15:00:13.852Z,2.2
2022-10-07T15:02:11.007Z,2.6
2022-10-07T15:04:10.424Z,2.6
2022-10-07T15:06:10.280Z,2.9
2022-10-07T15:08:11.440Z,2.4
2022-10-07T15:10:13.436Z,2.6
2022-10-07T15:12:11.938Z,2.8
2022-10-07T15:14:11.078Z,2.6
2022-10-07T15:16:14.130Z,3.5
2022-10-07T15:18:11.477Z,3.3
2022-10-07T15:20:14.926Z,3.4
2022-10-07T15:22:11.815Z,3.5
2022-10-07T15:24:11.966Z,3.3
2022-10-07T15:26:12.190Z,3
2022-10-07T15:28:13.424Z,2.5
2022-10-07T15:30:13.088Z,2.1
2022-10-07T15:32:12.790Z,2.7
2022-10-07T15:34:14.171Z,2.2
2022-10-07T15:36:13.808Z,2.4
2022-10-07T15:38:13.364Z,2.3
2022-10-07T15:40:13.536Z,2.3
2022-10-07T15:42:14.087Z,2.4
2022-10-07T15:44:16.061Z,2.8
2022-10-07T15:46:14.051Z,2.7
2022-10-07T15:48:14.243Z,2.7
2022-10-07T15:50:14.471Z,2.8
2022-10-07T15:52:14.912Z,2.2
2022-10-07T15:54:15.370Z,2.6
2022-10-07T15:56:15.270Z,2.4
2022-10-07T15:58:15.134Z,2.3
2022-10-07T16:00:15.558Z,2.8
2022-10-07T16:02:18.010Z,2.3
2022-10-07T16:04:15.730Z,2.6
2022-10-07T16:06:18.148Z,2.4
2022-10-07T16:08:16.131Z,2.6
2022-10-07T16:10:16.333Z,2.4
2022-10-07T16:12:16.506Z,2.7
2022-10-07T16:14:16.702Z,2.8
2022-10-07T16:16:18.627Z,2.5
2022-10-07T16:18:17.056Z,3
2022-10-07T16:20:17.261Z,2.3
2022-10-07T16:22:17.413Z,3
2022-10-07T16:24:19.446Z,2.8
2022-10-07T16:26:20.146Z,2.4
2022-10-07T16:28:18.074Z,2.2
2022-10-07T16:30:18.163Z,2.4
2022-10-07T16:32:18.411Z,2.5
2022-10-07T16:34:18.787Z,2.8
2022-10-07T16:36:20.320Z,2.4
2022-10-07T16:38:19.123Z,2.9
2022-10-07T16:40:19.156Z,2.7
2022-10-07T16:42:19.222Z,2.5
2022-10-07T16:44:20.337Z,3
2022-10-07T16:46:20.361Z,3
2022-10-07T16:48:19.780Z,2.8
2022-10-07T16:50:20.075Z,2.6
2022-10-07T16:52:20.135Z,2.5
2022-10-07T16:54:20.710Z,2.7
2022-10-07T16:56:21.654Z,2.5
2022-10-07T16:58:20.694Z,2.4
2022-10-07T17:00:21.122Z,2.4
2022-10-07T17:02:20.954Z,2.8
2022-10-07T17:04:21.690Z,2.4
2022-10-07T17:06:23.171Z,2.5
2022-10-07T17:08:21.660Z,2.3
2022-10-07T17:10:21.665Z,2.6
2022-10-07T17:12:21.783Z,2.4
2022-10-07T17:14:22.035Z,2.6
2022-10-07T17:16:22.696Z,2.2
2022-10-07T17:18:22.272Z,2.6
2022-10-07T17:20:22.451Z,2.6
2022-10-07T17:22:22.593Z,2.5
2022-10-07T17:24:23.351Z,2.9
2022-10-07T17:26:23.285Z,2.5
2022-10-07T17:28:27.917Z,2.7
2022-10-07T17:30:23.255Z,2.6
2022-10-07T17:32:23.464Z,2.6
2022-10-07T17:34:23.628Z,2.7
2022-10-07T17:36:24.462Z,3.1
2022-10-07T17:38:24.101Z,3.2
2022-10-07T17:40:24.596Z,2.5
2022-10-07T17:42:24.245Z,2.7
2022-10-07T17:44:24.382Z,2.5
2022-10-07T17:46:27.074Z,2.6
2022-10-07T17:48:24.731Z,2.4
2022-10-07T17:50:25.217Z,2.9
2022-10-07T17:52:27.507Z,2.8
2022-10-07T17:54:25.224Z,2.7
2022-10-07T17:56:26.429Z,2.9
2022-10-07T17:58:25.634Z,3.1
2022-10-07T18:00:25.758Z,2.2
2022-10-07T18:02:25.930Z,2.5
2022-10-07T18:04:26.116Z,2.7
2022-10-07T18:06:28.857Z,2.8
2022-10-07T18:08:26.376Z,2.7
2022-10-07T18:10:26.487Z,2.6
2022-10-07T18:12:26.707Z,3.5
2022-10-07T18:14:26.813Z,3.6
2022-10-07T18:16:30.156Z,3.2
2022-10-07T18:18:28.086Z,3.3
2022-10-07T18:20:27.594Z,3.2
2022-10-07T18:22:27.365Z,3.1
2022-10-07T18:24:28.000Z,2.9
2022-10-07T18:26:27.679Z,2.4
2022-10-07T18:28:27.898Z,2.5
2022-10-07T18:30:28.056Z,2.7
2022-10-07T18:32:28.079Z,2.6
2022-10-07T18:34:28.283Z,2.7
2022-10-07T18:36:28.785Z,2.9
2022-10-07T18:38:30.721Z,2.7
2022-10-07T18:40:29.948Z,3.7
2022-10-07T18:42:29.087Z,3.2
2022-10-07T18:44:29.251Z,2.7
2022-10-07T18:46:29.662Z,2.7
2022-10-07T18:48:29.997Z,2.6
2022-10-07T18:50:33.463Z,2.7
2022-10-07T18:52:29.817Z,2.7
2022-10-07T18:54:29.995Z,2.9
2022-10-07T18:56:30.155Z,2.9
2022-10-07T18:58:33.339Z,2.8
2022-10-07T19:00:30.432Z,2.5
2022-10-07T19:02:30.553Z,2.7
2022-10-07T19:04:30.740Z,2.9
2022-10-07T19:06:33.330Z,2.6
2022-10-07T19:08:30.957Z,2.6
2022-10-07T19:10:31.558Z,3
2022-10-07T19:12:31.220Z,2.9
2022-10-07T19:14:31.341Z,2.6
2022-10-07T19:16:34.140Z,3
2022-10-07T19:18:32.846Z,3
2022-10-07T19:20:31.779Z,3
2022-10-07T19:22:31.936Z,2.8
2022-10-07T19:24:32.077Z,2.6
2022-10-07T19:26:34.444Z,3.1
2022-10-07T19:28:34.849Z,2.9
2022-10-07T19:30:32.500Z,2.8
2022-10-07T19:32:33.009Z,2.4
2022-10-07T19:34:32.868Z,2.7
2022-10-07T19:36:35.782Z,2.7
2022-10-07T19:38:33.085Z,2.8
2022-10-07T19:40:37.855Z,2.8
2022-10-07T19:42:33.431Z,3
2022-10-07T19:44:33.685Z,2.5
2022-10-07T19:46:33.715Z,2.8
2022-10-07T19:48:34.656Z,2.7
2022-10-07T19:50:35.459Z,2.7
2022-10-07T19:52:34.080Z,3
2022-10-07T19:54:34.268Z,2.9
2022-10-07T19:56:35.617Z,2.6
2022-10-07T19:58:34.484Z,2.5
2022-10-07T20:00:34.705Z,3.4
2022-10-07T20:02:35.089Z,2.7
2022-10-07T20:04:34.854Z,3.4
2022-10-07T20:06:35.957Z,3
2022-10-07T20:08:37.432Z,2.6
2022-10-07T20:10:37.745Z,2.8
2022-10-07T20:12:35.590Z,3
2022-10-07T20:14:35.683Z,2.9
2022-10-07T20:16:35.802Z,3
2022-10-07T20:18:37.041Z,2.9
2022-10-07T20:20:36.034Z,3
2022-10-07T20:22:36.855Z,2.6
2022-10-07T20:24:36.491Z,2.8
2022-10-07T20:26:37.898Z,2.9
2022-10-07T20:28:36.721Z,3.3
2022-10-07T20:30:36.760Z,2.7
2022-10-07T20:32:36.796Z,2.8
2022-10-07T20:34:37.086Z,2.8
2022-10-07T20:36:37.757Z,2.8
2022-10-07T20:38:37.853Z,2.7
2022-10-07T20:40:37.388Z,2.8
2022-10-07T20:42:37.578Z,2.6
2022-10-07T20:44:38.396Z,2.6
2022-10-07T20:46:37.886Z,2.6
2022-10-07T20:48:41.143Z,2.7
2022-10-07T20:50:37.963Z,2.8
2022-10-07T20:52:38.169Z,2.9
2022-10-07T20:54:38.318Z,3.2
2022-10-07T20:56:38.503Z,2.9
2022-10-07T20:58:38.509Z,2.9
2022-10-07T21:00:38.634Z,2.8
2022-10-07T21:02:38.789Z,2.9
2022-10-07T21:04:38.993Z,2.9
2022-10-07T21:06:39.175Z,2.8
2022-10-07T21:08:39.064Z,2.7
2022-10-07T21:10:39.296Z,2.7
2022-10-07T21:12:39.349Z,2.8
2022-10-07T21:14:40.025Z,2.9
2022-10-07T21:16:40.032Z,2.9
2022-10-07T21:18:39.761Z,2.7
2022-10-07T21:20:52.957Z,2.8
2022-10-07T21:22:40.060Z,2.7
2022-10-07T21:24:40.081Z,2.9
2022-10-07T21:26:40.538Z,3.1
2022-10-07T21:28:40.617Z,2.8
2022-10-07T21:30:40.703Z,2.6
2022-10-07T21:32:40.569Z,3.1
2022-10-07T21:34:40.765Z,3.2
2022-10-07T21:36:43.119Z,2.5
2022-10-07T21:38:40.933Z,3
2022-10-07T21:40:41.092Z,2.9
2022-10-07T21:42:41.176Z,3.1
2022-10-07T21:44:41.319Z,3.3
2022-10-07T21:46:41.598Z,2.6
2022-10-07T21:48:41.761Z,3.1
2022-10-07T21:50:41.714Z,2.7
2022-10-07T21:52:41.748Z,3.6
2022-10-07T21:54:41.897Z,2.5
2022-10-07T21:56:42.596Z,2.9
2022-10-07T21:58:42.110Z,2.8
2022-10-07T22:00:43.010Z,3
2022-10-07T22:02:42.452Z,3
2022-10-07T22:04:42.759Z,3.1
2022-10-07T22:06:43.050Z,2.8
2022-10-07T22:08:45.263Z,3.1
2022-10-07T22:10:42.828Z,3.1
2022-10-07T22:12:43.683Z,3.2
2022-10-07T22:14:43.061Z,3.2
2022-10-07T22:16:43.245Z,2.9
2022-10-07T22:18:44.928Z,3
2022-10-07T22:20:43.576Z,2.9
2022-10-07T22:22:43.899Z,3
2022-10-07T22:24:43.677Z,2.8
2022-10-07T22:26:45.386Z,2.9
2022-10-07T22:28:44.573Z,2.8
2022-10-07T22:30:44.211Z,3.4
2022-10-07T22:32:44.446Z,3
2022-10-07T22:34:44.309Z,3
2022-10-07T22:36:44.473Z,3.5
2022-10-07T22:38:44.845Z,2.8
2022-10-07T22:40:45.264Z,2.7
2022-10-07T22:42:45.394Z,3.1
2022-10-07T22:44:44.860Z,3.5
2022-10-07T22:46:45.203Z,2.8
2022-10-07T22:48:45.154Z,3.1
2022-10-07T22:50:45.243Z,3.3
2022-10-07T22:52:45.808Z,3.2
2022-10-07T22:54:45.470Z,3
2022-10-07T22:56:45.708Z,3
2022-10-07T22:58:50.105Z,3
2022-10-07T23:00:45.890Z,3.3
2022-10-07T23:02:46.411Z,3.4
2022-10-07T23:04:46.057Z,3.2
2022-10-07T23:06:46.263Z,3
2022-10-07T23:08:47.836Z,3.4
2022-10-07T23:10:54.647Z,3.5
2022-10-07T23:12:46.846Z,3.2
2022-10-07T23:14:46.629Z,3.4
2022-10-07T23:16:46.758Z,3
2022-10-07T23:18:48.175Z,3.5
2022-10-07T23:20:47.016Z,2.9
2022-10-07T23:22:47.497Z,3.2
2022-10-07T23:24:47.233Z,3
2022-10-07T23:26:47.419Z,4
2022-10-07T23:28:48.366Z,3.3
2022-10-07T23:30:48.035Z,3.1
2022-10-07T23:32:48.201Z,3.2
2022-10-07T23:34:47.890Z,3.1
2022-10-07T23:36:48.161Z,3.4
2022-10-07T23:38:49.630Z,3.3
2022-10-07T23:40:48.313Z,3
2022-10-07T23:42:48.982Z,3.4
2022-10-07T23:44:48.548Z,3.3
2022-10-07T23:46:48.807Z,3.1
2022-10-07T23:48:49.302Z,3.5
2022-10-07T23:50:49.622Z,3.4
2022-10-07T23:52:49.358Z,3
2022-10-07T23:54:49.189Z,2.9
2022-10-07T23:56:49.342Z,3.2
2022-10-07T23:58:49.630Z,3.3
